Time;durP1;ratioP1;P1;durP2;ratioP2;P2;SDS_P1;SDS_P2;PMS_P1;PMS_P2;Temp;Humidity;BMP_temperature;BMP_pressure;BME280_temperature;BME280_humidity;BME280_pressure;Samples;Min_cycle;Max_cycle;Signal;HPM_P1;HPM_P2
2023/02/23 00:01:34;;;;;;;22.40;14.77;;;;;;;;;;4995676;28;20072;-79
2023/02/23 00:04:02;;;;;;;20.95;14.85;;;;;;;;;;5010866;28;20378;-78
2023/02/23 00:06:30;;;;;;;25.13;15.98;;;;;;;;;;5011519;28;20498;-78
2023/02/23 00:08:59;;;;;;;24.85;15.57;;;;;;;;;;4994641;28;20054;-78
2023/02/23 00:11:27;;;;;;;26.17;16.05;;;;;;;;;;4978866;28;20046;-77
2023/02/23 00:13:55;;;;;;;23.48;14.77;;;;;;;;;;4994397;28;20457;-78
2023/02/23 00:16:23;;;;;;;22.73;14.52;;;;;;;;;;4994193;28;20188;-78
2023/02/23 00:18:55;;;;;;;27.75;16.42;;;;;;;;;;4977459;28;20088;-78
2023/02/23 00:21:31;;;;;;;20.08;14.82;;;;;;;;;;5016291;28;20304;-77
2023/02/23 00:24:04;;;;;;;26.35;14.80;;;;;;;;;;4994623;28;20486;-75
2023/02/23 00:26:35;;;;;;;22.63;15.30;;;;;;;;;;4993761;28;20060;-76
2023/02/23 00:29:08;;;;;;;23.05;15.25;;;;;;;;;;4994200;28;20133;-76
2023/02/23 00:31:37;;;;;;;20.95;14.85;;;;;;;;;;5008743;28;20136;-77
2023/02/23 00:34:04;;;;;;;20.05;14.95;;;;;;;;;;4993722;28;20108;-76
2023/02/23 00:36:33;;;;;;;23.45;15.82;;;;;;;;;;4993544;28;20453;-76
2023/02/23 00:39:19;;;;;;;24.48;15.50;;;;;;;;;;5009547;28;20060;-77
2023/02/23 00:41:51;;;;;;;22.40;15.32;;;;;;;;;;5009689;28;20046;-77
2023/02/23 00:44:20;;;;;;;24.77;16.08;;;;;;;;;;5009932;28;20045;-77
2023/02/23 00:46:50;;;;;;;27.35;16.48;;;;;;;;;;5010544;28;20136;-78
2023/02/23 00:49:19;;;;;;;26.95;15.40;;;;;;;;;;4994165;28;20053;-77
2023/02/23 00:51:46;;;;;;;20.92;14.70;;;;;;;;;;5011886;28;20108;-77
2023/02/23 00:54:13;;;;;;;23.10;14.93;;;;;;;;;;5011254;28;20054;-78
2023/02/23 00:56:40;;;;;;;27.20;14.32;;;;;;;;;;4994282;28;20096;-77
2023/02/23 00:59:07;;;;;;;22.52;15.55;;;;;;;;;;5010238;28;20053;-78
2023/02/23 01:01:36;;;;;;;20.58;14.52;;;;;;;;;;4978423;28;20417;-78
2023/02/23 01:04:03;;;;;;;23.75;15.57;;;;;;;;;;5010248;28;20060;-78
2023/02/23 01:06:31;;;;;;;31.05;17.20;;;;;;;;;;5009895;28;20501;-78
2023/02/23 01:08:58;;;;;;;24.30;14.80;;;;;;;;;;4993605;28;20472;-79
2023/02/23 01:11:27;;;;;;;24.90;15.93;;;;;;;;;;5015058;28;20077;-79
2023/02/23 01:13:56;;;;;;;25.85;18.08;;;;;;;;;;4995912;28;20049;-78
2023/02/23 01:16:26;;;;;;;26.00;16.77;;;;;;;;;;4994316;28;20061;-78
2023/02/23 01:18:57;;;;;;;21.48;16.02;;;;;;;;;;5011072;28;20060;-78
2023/02/23 01:21:29;;;;;;;20.98;15.65;;;;;;;;;;5009748;28;20529;-78
2023/02/23 01:23:56;;;;;;;26.25;16.35;;;;;;;;;;5011585;28;20112;-79
2023/02/23 01:26:28;;;;;;;26.67;17.48;;;;;;;;;;4996219;28;20084;-79
2023/02/23 01:29:00;;;;;;;28.00;18.00;;;;;;;;;;4980277;28;20061;-81
2023/02/23 01:31:28;;;;;;;25.35;17.67;;;;;;;;;;5012560;28;20057;-79
2023/02/23 01:33:57;;;;;;;26.58;17.20;;;;;;;;;;4980052;28;20100;-80
2023/02/23 01:36:30;;;;;;;25.92;17.63;;;;;;;;;;4995885;28;20056;-80
2023/02/23 01:38:58;;;;;;;;;;;;;;;;;;4981879;28;20049;-80
2023/02/23 01:41:31;;;;;;;28.42;17.25;;;;;;;;;;5009763;28;19925;-78
2023/02/23 01:44:07;;;;;;;26.52;17.23;;;;;;;;;;4980593;28;20049;-77
2023/02/23 01:46:38;;;;;;;29.60;18.30;;;;;;;;;;5015384;28;20053;-79
2023/02/23 01:49:09;;;;;;;25.67;17.02;;;;;;;;;;5014816;28;20053;-78
2023/02/23 01:51:39;;;;;;;24.00;17.38;;;;;;;;;;5014057;28;20081;-79
2023/02/23 01:54:14;;;;;;;26.55;18.40;;;;;;;;;;5014626;28;20124;-78
2023/02/23 01:56:43;;;;;;;26.98;19.27;;;;;;;;;;4983734;28;20058;-79
2023/02/23 01:59:11;;;;;;;26.45;19.15;;;;;;;;;;4997744;28;20054;-78
2023/02/23 02:01:39;;;;;;;29.48;17.50;;;;;;;;;;5014463;28;20082;-78
2023/02/23 02:04:07;;;;;;;27.50;18.38;;;;;;;;;;4996552;28;20053;-78
2023/02/23 02:06:35;;;;;;;30.17;20.02;;;;;;;;;;5013005;28;20516;-79
2023/02/23 02:09:09;;;;;;;27.13;18.20;;;;;;;;;;4981065;28;20089;-79
2023/02/23 02:11:37;;;;;;;26.63;18.50;;;;;;;;;;4981289;28;20149;-78
2023/02/23 02:14:15;;;;;;;26.92;17.80;;;;;;;;;;4998123;28;20057;-80
2023/02/23 02:16:53;;;;;;;27.23;18.35;;;;;;;;;;4999167;28;20125;-80
2023/02/23 02:19:56;;;;;;;26.33;17.67;;;;;;;;;;4999211;28;20517;-80
2023/02/23 02:22:58;;;;;;;26.88;18.42;;;;;;;;;;4964526;28;20050;-78
2023/02/23 02:25:28;;;;;;;23.17;17.45;;;;;;;;;;5013399;28;20141;-78
2023/02/23 02:28:29;;;;;;;31.83;19.88;;;;;;;;;;5013244;28;20148;-78
2023/02/23 02:31:11;;;;;;;29.92;19.67;;;;;;;;;;5012732;28;20057;-77
2023/02/23 02:33:59;;;;;;;29.02;18.35;;;;;;;;;;5013345;28;20498;-78
2023/02/23 02:36:35;;;;;;;30.25;19.60;;;;;;;;;;5012238;28;20141;-78
2023/02/23 02:39:33;;;;;;;27.55;18.38;;;;;;;;;;5013181;28;20137;-79
2023/02/23 02:42:29;;;;;;;32.30;19.40;;;;;;;;;;4999017;28;20155;-79
2023/02/23 02:45:03;;;;;;;29.52;18.25;;;;;;;;;;5014346;28;20518;-78
2023/02/23 02:48:05;;;;;;;28.20;18.55;;;;;;;;;;5012932;28;20093;-78
2023/02/23 02:50:55;;;;;;;29.65;18.95;;;;;;;;;;5008782;28;20090;-79
2023/02/23 02:53:53;;;;;;;31.58;18.48;;;;;;;;;;5013319;28;20058;-79
2023/02/23 02:56:22;;;;;;;28.75;18.25;;;;;;;;;;4928377;28;20052;-80
2023/02/23 02:58:49;;;;;;;27.30;18.45;;;;;;;;;;4997806;28;20058;-79
2023/02/23 04:19:27;;;;;;;28.17;19.75;;;;;;;;;;4974292;28;20064;-75
2023/02/23 04:21:54;;;;;;;27.88;19.40;;;;;;;;;;4974610;28;20141;-76
2023/02/23 04:24:22;;;;;;;27.90;19.13;;;;;;;;;;4991703;28;20085;-74
2023/02/23 04:26:48;;;;;;;29.92;18.90;;;;;;;;;;4976765;28;20145;-76
2023/02/23 04:29:16;;;;;;;28.98;20.63;;;;;;;;;;5007260;28;20046;-74
2023/02/23 04:31:44;;;;;;;27.20;19.27;;;;;;;;;;4986983;28;20053;-77
2023/02/23 04:34:13;;;;;;;30.63;20.63;;;;;;;;;;5013134;28;20056;-78
2023/02/23 04:36:40;;;;;;;28.58;18.98;;;;;;;;;;5009944;28;20078;-77
2023/02/23 04:39:07;;;;;;;31.13;19.55;;;;;;;;;;5012999;28;20495;-77
2023/02/23 04:41:34;;;;;;;31.48;20.13;;;;;;;;;;4994717;28;20096;-77
2023/02/23 04:44:01;;;;;;;29.92;20.23;;;;;;;;;;4994779;28;20137;-75
2023/02/23 04:46:28;;;;;;;30.65;20.58;;;;;;;;;;5011129;28;20140;-75
2023/02/23 04:48:55;;;;;;;31.13;19.63;;;;;;;;;;4993955;28;20058;-75
2023/02/23 04:51:21;;;;;;;28.00;19.88;;;;;;;;;;5011155;28;20056;-75
2023/02/23 04:53:49;;;;;;;33.65;19.45;;;;;;;;;;5010372;28;20077;-74
2023/02/23 04:56:15;;;;;;;30.35;19.10;;;;;;;;;;4993598;28;20085;-74
2023/02/23 04:58:42;;;;;;;28.75;21.02;;;;;;;;;;4993259;28;20060;-74
2023/02/23 05:01:09;;;;;;;27.92;20.02;;;;;;;;;;5009727;28;20046;-74
2023/02/23 05:03:36;;;;;;;28.35;19.67;;;;;;;;;;5009273;28;20049;-75
2023/02/23 05:06:03;;;;;;;30.20;19.20;;;;;;;;;;4993304;28;20084;-74
2023/02/23 05:08:30;;;;;;;32.40;20.95;;;;;;;;;;5009944;28;20124;-75
2023/02/23 05:10:57;;;;;;;32.53;20.52;;;;;;;;;;4992481;28;20141;-75
2023/02/23 05:13:24;;;;;;;29.00;19.58;;;;;;;;;;5010503;28;20076;-75
2023/02/23 05:15:56;;;;;;;28.23;20.17;;;;;;;;;;4993938;28;20073;-74
2023/02/23 05:18:24;;;;;;;31.38;21.30;;;;;;;;;;4993371;28;20057;-74
2023/02/23 05:20:51;;;;;;;36.58;23.75;;;;;;;;;;4992800;28;20060;-73
2023/02/23 05:23:20;;;;;;;31.88;20.75;;;;;;;;;;4993022;28;20108;-74
2023/02/23 05:25:47;;;;;;;27.02;19.63;;;;;;;;;;5008774;28;20137;-75
2023/02/23 05:28:14;;;;;;;29.88;20.50;;;;;;;;;;5008611;28;20132;-74
2023/02/23 05:30:40;;;;;;;32.22;20.60;;;;;;;;;;5008909;28;20149;-74
2023/02/23 05:33:07;;;;;;;32.97;20.75;;;;;;;;;;4992574;28;20054;-75
2023/02/23 05:35:34;;;;;;;35.25;22.05;;;;;;;;;;5008963;28;20093;-75
2023/02/23 05:38:01;;;;;;;31.23;21.00;;;;;;;;;;5008438;28;20054;-75
2023/02/23 05:40:28;;;;;;;36.47;23.90;;;;;;;;;;5010024;28;20095;-74
2023/02/23 05:42:58;;;;;;;30.27;21.65;;;;;;;;;;5010082;28;20096;-75
2023/02/23 05:45:25;;;;;;;30.17;21.02;;;;;;;;;;5008961;28;20573;-74
2023/02/23 05:47:52;;;;;;;29.33;18.88;;;;;;;;;;5008242;28;20167;-76
2023/02/23 05:50:19;;;;;;;29.67;19.40;;;;;;;;;;5009268;28;20092;-77
2023/02/23 05:52:45;;;;;;;29.75;20.52;;;;;;;;;;5009226;28;20061;-76
2023/02/23 05:55:12;;;;;;;38.88;21.52;;;;;;;;;;5008987;28;20056;-75
2023/02/23 05:57:40;;;;;;;34.55;22.38;;;;;;;;;;4992961;28;20137;-79
2023/02/23 06:00:07;;;;;;;31.88;20.85;;;;;;;;;;4992649;28;20050;-77
2023/02/23 06:02:35;;;;;;;28.67;19.33;;;;;;;;;;5009077;28;20506;-76
2023/02/23 06:05:02;;;;;;;29.45;18.95;;;;;;;;;;5008973;28;20123;-77
2023/02/23 06:07:29;;;;;;;25.38;19.42;;;;;;;;;;4992141;28;20130;-77
2023/02/23 06:09:55;;;;;;;28.38;18.85;;;;;;;;;;5009333;28;20054;-77
2023/02/23 06:12:22;;;;;;;25.45;18.25;;;;;;;;;;5014438;28;20129;-77
2023/02/23 06:14:49;;;;;;;27.40;17.98;;;;;;;;;;4994025;28;20049;-77
2023/02/23 06:17:16;;;;;;;24.17;17.38;;;;;;;;;;5010529;28;20053;-77
2023/02/23 06:19:43;;;;;;;23.10;16.55;;;;;;;;;;5011153;28;20077;-77
2023/02/23 06:22:10;;;;;;;26.52;17.15;;;;;;;;;;5010835;28;20054;-77
2023/02/23 06:24:37;;;;;;;26.27;16.95;;;;;;;;;;4992739;28;20053;-77
2023/02/23 06:27:04;;;;;;;29.88;18.13;;;;;;;;;;4992636;28;20064;-77
2023/02/23 06:29:31;;;;;;;29.63;18.88;;;;;;;;;;5011988;28;20395;-76
2023/02/23 06:31:58;;;;;;;25.45;18.25;;;;;;;;;;5014175;28;20074;-76
2023/02/23 06:34:26;;;;;;;28.75;18.60;;;;;;;;;;4997406;28;20089;-76
2023/02/23 06:36:53;;;;;;;28.13;19.25;;;;;;;;;;4997202;28;20132;-75
2023/02/23 06:39:20;;;;;;;26.85;18.77;;;;;;;;;;4996523;28;20050;-76
2023/02/23 06:41:47;;;;;;;28.20;19.23;;;;;;;;;;4979779;28;20073;-77
2023/02/23 06:44:14;;;;;;;32.88;21.13;;;;;;;;;;5011260;28;20062;-76
2023/02/23 06:46:41;;;;;;;32.13;21.30;;;;;;;;;;5011704;28;20072;-75
2023/02/23 06:49:09;;;;;;;34.22;22.80;;;;;;;;;;5014700;28;20054;-74
2023/02/23 06:51:36;;;;;;;34.60;24.02;;;;;;;;;;4981251;28;20046;-75
2023/02/23 06:54:03;;;;;;;35.13;23.90;;;;;;;;;;4996950;28;20111;-76
2023/02/23 06:56:30;;;;;;;32.42;23.00;;;;;;;;;;5013605;28;20522;-76
2023/02/23 06:58:57;;;;;;;32.42;21.60;;;;;;;;;;4997243;28;20054;-76
2023/02/23 07:01:23;;;;;;;34.92;21.25;;;;;;;;;;5013078;28;20111;-74
2023/02/23 07:03:50;;;;;;;33.97;22.15;;;;;;;;;;4997626;28;20061;-76
2023/02/23 07:06:17;;;;;;;34.30;20.88;;;;;;;;;;5013239;28;20053;-76
2023/02/23 07:08:44;;;;;;;31.50;20.25;;;;;;;;;;5012828;28;20068;-76
2023/02/23 07:11:13;;;;;;;30.23;20.65;;;;;;;;;;5013015;28;20093;-76
2023/02/23 07:13:41;;;;;;;57.45;36.35;;;;;;;;;;5013028;28;20085;-76
2023/02/23 07:16:08;;;;;;;87.35;54.80;;;;;;;;;;4996296;28;20562;-75
2023/02/23 07:18:35;;;;;;;54.28;36.92;;;;;;;;;;4996154;28;20490;-76
2023/02/23 07:21:02;;;;;;;36.38;24.65;;;;;;;;;;5012755;28;20065;-75
2023/02/23 07:23:29;;;;;;;37.95;24.77;;;;;;;;;;5012581;28;20045;-77
2023/02/23 07:25:55;;;;;;;30.63;22.13;;;;;;;;;;5014923;28;20160;-75
2023/02/23 07:28:23;;;;;;;33.15;22.10;;;;;;;;;;5011938;28;20140;-74
2023/02/23 07:30:49;;;;;;;34.10;21.30;;;;;;;;;;5013318;28;20103;-76
2023/02/23 07:33:16;;;;;;;35.28;21.67;;;;;;;;;;5014095;28;20302;-76
2023/02/23 07:35:44;;;;;;;31.52;21.20;;;;;;;;;;5009832;28;20093;-76
2023/02/23 07:38:12;;;;;;;29.73;20.95;;;;;;;;;;5011004;28;20133;-75
2023/02/23 07:40:39;;;;;;;29.60;20.30;;;;;;;;;;4996502;28;20100;-75
2023/02/23 07:43:06;;;;;;;28.85;20.05;;;;;;;;;;5007724;28;20077;-76
2023/02/23 07:45:33;;;;;;;26.25;19.25;;;;;;;;;;4973777;28;20058;-77
2023/02/23 07:48:00;;;;;;;29.33;19.38;;;;;;;;;;4986492;28;20056;-77
2023/02/23 07:50:27;;;;;;;23.80;18.00;;;;;;;;;;4982048;28;20100;-78
2023/02/23 07:52:54;;;;;;;27.33;18.63;;;;;;;;;;5000804;28;20057;-78
2023/02/23 07:55:21;;;;;;;28.63;20.40;;;;;;;;;;4997576;28;20133;-78
2023/02/23 07:57:48;;;;;;;28.27;20.15;;;;;;;;;;4991304;28;20744;-77
2023/02/23 08:00:15;;;;;;;28.77;20.30;;;;;;;;;;4985665;28;20054;-77
2023/02/23 08:02:42;;;;;;;25.80;17.98;;;;;;;;;;5004299;28;20207;-77
2023/02/23 08:05:09;;;;;;;26.77;17.85;;;;;;;;;;4987110;28;20086;-77
2023/02/23 08:07:36;;;;;;;24.25;16.63;;;;;;;;;;4988011;28;20246;-77
2023/02/23 08:10:03;;;;;;;24.80;15.88;;;;;;;;;;5004544;28;21641;-81
2023/02/23 08:12:32;;;;;;;26.30;18.65;;;;;;;;;;5002342;28;20100;-78
2023/02/23 08:14:59;;;;;;;31.38;20.30;;;;;;;;;;4997820;28;20050;-76
2023/02/23 08:17:26;;;;;;;25.00;17.38;;;;;;;;;;4997953;28;20089;-79
2023/02/23 08:19:53;;;;;;;31.98;19.20;;;;;;;;;;5005303;28;20054;-81
2023/02/23 08:22:20;;;;;;;27.15;17.88;;;;;;;;;;4997969;28;20077;-75
2023/02/23 08:24:47;;;;;;;26.88;16.15;;;;;;;;;;4990736;28;20077;-76
2023/02/23 08:27:13;;;;;;;26.38;17.67;;;;;;;;;;5002487;28;20129;-75
2023/02/23 08:29:40;;;;;;;25.80;17.58;;;;;;;;;;4982445;28;20603;-74
2023/02/23 08:32:07;;;;;;;26.55;16.10;;;;;;;;;;4980519;28;20069;-74
2023/02/23 08:34:42;;;;;;;23.48;16.30;;;;;;;;;;4999059;28;20085;-74
2023/02/23 08:37:09;;;;;;;20.00;15.20;;;;;;;;;;4994365;28;20499;-74
2023/02/23 08:39:36;;;;;;;21.73;15.93;;;;;;;;;;4997646;28;20066;-74
2023/02/23 08:42:03;;;;;;;22.52;15.27;;;;;;;;;;4978862;28;20049;-74
2023/02/23 08:44:30;;;;;;;20.80;15.63;;;;;;;;;;4996290;28;20584;-74
2023/02/23 08:46:57;;;;;;;21.13;15.23;;;;;;;;;;4982257;28;20104;-74
2023/02/23 08:49:24;;;;;;;23.52;15.55;;;;;;;;;;4979191;28;20084;-74
2023/02/23 08:51:51;;;;;;;20.45;15.10;;;;;;;;;;4983053;28;20133;-74
2023/02/23 08:54:19;;;;;;;19.27;13.88;;;;;;;;;;4995667;28;20133;-74
2023/02/23 08:56:46;;;;;;;19.90;14.32;;;;;;;;;;5010820;28;20092;-73
2023/02/23 08:59:13;;;;;;;26.10;14.77;;;;;;;;;;4980417;28;20077;-74
2023/02/23 09:01:41;;;;;;;24.42;14.65;;;;;;;;;;4998774;28;20425;-74
2023/02/23 09:04:08;;;;;;;23.10;14.90;;;;;;;;;;4994853;28;20050;-74
2023/02/23 09:06:35;;;;;;;19.42;13.48;;;;;;;;;;4997811;28;20131;-74
2023/02/23 09:09:02;;;;;;;22.52;13.23;;;;;;;;;;4995663;28;20137;-74
2023/02/23 09:11:29;;;;;;;18.25;13.90;;;;;;;;;;4995507;28;20104;-74
2023/02/23 09:13:56;;;;;;;16.95;13.00;;;;;;;;;;4995743;28;20081;-74
2023/02/23 09:16:23;;;;;;;20.17;12.73;;;;;;;;;;4994915;28;20050;-73
2023/02/23 09:18:50;;;;;;;16.45;12.65;;;;;;;;;;4996840;28;20082;-74
2023/02/23 09:21:21;;;;;;;19.80;12.30;;;;;;;;;;4997740;28;20070;-74
2023/02/23 09:23:50;;;;;;;20.38;14.45;;;;;;;;;;4998370;28;20057;-74
2023/02/23 09:26:17;;;;;;;18.05;13.25;;;;;;;;;;4988274;28;20054;-74
2023/02/23 09:28:45;;;;;;;19.33;13.77;;;;;;;;;;4980053;28;20125;-74
2023/02/23 09:31:13;;;;;;;18.85;12.23;;;;;;;;;;4982539;28;20136;-73
2023/02/23 09:33:40;;;;;;;22.50;14.77;;;;;;;;;;4997652;28;20148;-74
2023/02/23 09:36:14;;;;;;;17.92;13.07;;;;;;;;;;4995628;28;21280;-74
2023/02/23 09:38:42;;;;;;;22.95;13.38;;;;;;;;;;4994465;28;20140;-74
2023/02/23 09:41:25;;;;;;;22.30;12.95;;;;;;;;;;4997685;28;20501;-74
2023/02/23 09:44:01;;;;;;;19.55;13.35;;;;;;;;;;4995843;28;20724;-74
2023/02/23 09:46:37;;;;;;;21.70;13.15;;;;;;;;;;5005831;28;20168;-74
2023/02/23 09:49:04;;;;;;;21.90;12.63;;;;;;;;;;5009539;28;20406;-72
2023/02/23 09:51:36;;;;;;;21.70;13.27;;;;;;;;;;5008515;28;20057;-72
2023/02/23 09:54:03;;;;;;;21.00;12.93;;;;;;;;;;5008468;28;20136;-72
2023/02/23 09:56:35;;;;;;;16.45;12.45;;;;;;;;;;4976627;28;20056;-72
2023/02/23 09:59:04;;;;;;;17.38;12.15;;;;;;;;;;5009925;28;20137;-73
2023/02/23 10:01:45;;;;;;;16.15;11.88;;;;;;;;;;4992320;28;20136;-73
2023/02/23 10:04:31;;;;;;;20.35;12.73;;;;;;;;;;5010179;28;20072;-73
2023/02/23 10:06:59;;;;;;;23.35;13.63;;;;;;;;;;4996236;28;20054;-73
2023/02/23 10:10:00;;;;;;;16.67;12.27;;;;;;;;;;4995573;28;20552;-73
2023/02/23 10:12:45;;;;;;;19.42;12.18;;;;;;;;;;5012529;28;20065;-76
2023/02/23 10:15:33;;;;;;;18.73;11.80;;;;;;;;;;5012269;28;20133;-74
2023/02/23 10:18:19;;;;;;;20.08;12.23;;;;;;;;;;5013412;28;20491;-75
2023/02/23 10:20:57;;;;;;;17.35;11.27;;;;;;;;;;5011437;28;20080;-74
2023/02/23 10:23:46;;;;;;;14.80;11.10;;;;;;;;;;4997076;28;20080;-74
2023/02/23 10:26:17;;;;;;;18.52;10.98;;;;;;;;;;5011231;28;20144;-74
2023/02/23 10:28:44;;;;;;;17.52;12.05;;;;;;;;;;5011930;28;20054;-76
2023/02/23 10:31:30;;;;;;;15.65;11.60;;;;;;;;;;4990486;28;20046;-73
2023/02/23 10:33:59;;;;;;;18.00;11.60;;;;;;;;;;4988624;28;20058;-73
2023/02/23 10:36:26;;;;;;;22.55;14.10;;;;;;;;;;4996899;28;20088;-72
2023/02/23 10:38:52;;;;;;;15.95;11.55;;;;;;;;;;4999266;28;20138;-73
2023/02/23 10:41:19;;;;;;;15.90;11.43;;;;;;;;;;4986492;28;20054;-72
2023/02/23 10:43:47;;;;;;;17.45;11.65;;;;;;;;;;4987308;28;20104;-73
2023/02/23 10:46:20;;;;;;;19.00;11.10;;;;;;;;;;4996660;28;20057;-73
2023/02/23 10:48:47;;;;;;;13.02;8.85;;;;;;;;;;4983724;28;20054;-73
2023/02/23 10:51:20;;;;;;;14.93;10.05;;;;;;;;;;4983280;28;20053;-73
2023/02/23 10:53:47;;;;;;;14.23;9.48;;;;;;;;;;4980794;28;20051;-73
2023/02/23 10:56:16;;;;;;;14.50;9.45;;;;;;;;;;4993161;28;20146;-73
2023/02/23 10:58:45;;;;;;;14.40;9.20;;;;;;;;;;5000971;28;20521;-73
2023/02/23 11:01:37;;;;;;;14.77;8.95;;;;;;;;;;4987691;28;20131;-73
2023/02/23 11:04:18;;;;;;;13.82;8.95;;;;;;;;;;5002584;28;20081;-73
2023/02/23 11:06:45;;;;;;;14.13;9.07;;;;;;;;;;5002155;28;20050;-73
2023/02/23 11:09:30;;;;;;;12.93;8.55;;;;;;;;;;4989914;28;20053;-73
2023/02/23 11:12:24;;;;;;;11.32;9.13;;;;;;;;;;4982701;28;20060;-73
2023/02/23 11:14:53;;;;;;;10.52;7.65;;;;;;;;;;4989071;28;20050;-74
2023/02/23 11:17:26;;;;;;;11.73;7.50;;;;;;;;;;5000383;28;20049;-73
2023/02/23 11:20:17;;;;;;;13.15;8.35;;;;;;;;;;5005807;28;20088;-73
2023/02/23 11:22:44;;;;;;;11.32;6.82;;;;;;;;;;4982653;28;20054;-74
2023/02/23 11:25:28;;;;;;;18.42;7.43;;;;;;;;;;5003713;28;20101;-74
2023/02/23 11:27:55;;;;;;;13.00;6.75;;;;;;;;;;4998587;28;20500;-73
2023/02/23 11:30:28;;;;;;;9.95;7.03;;;;;;;;;;5002731;28;20053;-73
2023/02/23 11:32:57;;;;;;;11.40;6.20;;;;;;;;;;4982968;28;20136;-73
2023/02/23 11:35:28;;;;;;;11.38;7.45;;;;;;;;;;4998626;28;20077;-73
2023/02/23 11:37:55;;;;;;;9.70;7.10;;;;;;;;;;5001377;28;20060;-73
2023/02/23 11:40:30;;;;;;;9.77;6.57;;;;;;;;;;4996200;28;20058;-72
2023/02/23 11:43:03;;;;;;;8.73;7.07;;;;;;;;;;5018641;28;20094;-73
2023/02/23 11:45:32;;;;;;;;;;;;;;;;;;5002975;28;20054;-74
2023/02/23 11:48:00;;;;;;;11.32;6.63;;;;;;;;;;5014343;28;19922;-74
2023/02/23 11:50:32;;;;;;;10.80;6.40;;;;;;;;;;4992347;28;20127;-73
2023/02/23 11:53:04;;;;;;;9.38;6.70;;;;;;;;;;4965892;28;20467;-73
2023/02/23 11:55:32;;;;;;;9.60;6.60;;;;;;;;;;4985293;28;20086;-73
2023/02/23 11:58:24;;;;;;;8.95;6.00;;;;;;;;;;4975215;28;20125;-72
2023/02/23 12:01:00;;;;;;;8.48;6.00;;;;;;;;;;5059648;23;20058;-73
2023/02/23 12:03:30;;;;;;;10.20;6.07;;;;;;;;;;4997938;28;20058;-73
2023/02/23 12:05:58;;;;;;;12.65;7.20;;;;;;;;;;4997413;28;20137;-73
2023/02/23 12:08:43;;;;;;;11.27;5.93;;;;;;;;;;5015656;28;20049;-71
2023/02/23 12:11:13;;;;;;;10.38;5.50;;;;;;;;;;4995362;28;20060;-73
2023/02/23 12:13:46;;;;;;;8.40;5.28;;;;;;;;;;4989150;28;20410;-73
2023/02/23 12:16:20;;;;;;;10.02;5.75;;;;;;;;;;5015956;28;20051;-73
2023/02/23 12:19:12;;;;;;;6.90;4.65;;;;;;;;;;4995722;28;20058;-72
2023/02/23 12:22:03;;;;;;;8.75;5.35;;;;;;;;;;5006579;28;20149;-72
2023/02/23 12:24:33;;;;;;;5.95;4.30;;;;;;;;;;5015603;28;20446;-73
2023/02/23 12:27:02;;;;;;;8.05;3.78;;;;;;;;;;5012314;28;20049;-73
2023/02/23 12:29:38;;;;;;;8.20;4.20;;;;;;;;;;5011368;28;20104;-73
2023/02/23 12:32:38;;;;;;;8.27;4.63;;;;;;;;;;5001538;28;20068;-72
2023/02/23 12:35:12;;;;;;;8.20;3.85;;;;;;;;;;4996579;28;20053;-72
2023/02/23 12:37:50;;;;;;;8.38;4.10;;;;;;;;;;4982398;28;20140;-72
2023/02/23 12:40:22;;;;;;;7.22;3.42;;;;;;;;;;4995475;28;20070;-72
2023/02/23 12:43:01;;;;;;;5.43;3.78;;;;;;;;;;4998388;28;20058;-72
2023/02/23 12:45:36;;;;;;;7.53;4.35;;;;;;;;;;4978928;28;20050;-73
2023/02/23 12:48:24;;;;;;;6.32;3.55;;;;;;;;;;4997393;28;20128;-73
2023/02/23 12:50:57;;;;;;;7.82;3.55;;;;;;;;;;4998502;28;20050;-73
2023/02/23 12:53:41;;;;;;;8.90;4.07;;;;;;;;;;4983071;28;20445;-71
2023/02/23 12:56:25;;;;;;;8.32;4.75;;;;;;;;;;4998837;28;20077;-73
2023/02/23 12:59:05;;;;;;;8.00;4.32;;;;;;;;;;5013884;28;20502;-72
2023/02/23 13:01:38;;;;;;;9.07;5.32;;;;;;;;;;4998002;28;20050;-73
2023/02/23 13:04:18;;;;;;;9.07;5.05;;;;;;;;;;5007424;28;20484;-72
2023/02/23 13:07:11;;;;;;;11.45;4.90;;;;;;;;;;5009974;28;20054;-72
2023/02/23 13:09:41;;;;;;;7.07;4.45;;;;;;;;;;5014901;28;20050;-74
2023/02/23 13:12:11;;;;;;;12.23;5.53;;;;;;;;;;5013126;28;20050;-74
2023/02/23 13:14:38;;;;;;;7.63;5.25;;;;;;;;;;5019020;28;20054;-74
2023/02/23 13:17:17;;;;;;;10.15;5.47;;;;;;;;;;5011264;28;20060;-73
2023/02/23 13:19:52;;;;;;;9.88;5.53;;;;;;;;;;5014576;28;20549;-75
2023/02/23 13:22:35;;;;;;;7.60;5.78;;;;;;;;;;4999853;28;20050;-73
2023/02/23 13:25:06;;;;;;;11.25;6.15;;;;;;;;;;5012806;28;20081;-73
2023/02/23 13:27:37;;;;;;;13.23;6.50;;;;;;;;;;4995756;28;20057;-74
2023/02/23 13:30:04;;;;;;;11.85;6.03;;;;;;;;;;5000571;28;20050;-72
2023/02/23 13:32:32;;;;;;;10.10;4.60;;;;;;;;;;4981860;28;20492;-73
2023/02/23 13:35:05;;;;;;;7.30;5.07;;;;;;;;;;4996012;28;20577;-73
2023/02/23 13:37:42;;;;;;;8.50;4.70;;;;;;;;;;5011262;28;20394;-73
2023/02/23 13:40:25;;;;;;;8.70;4.88;;;;;;;;;;5012778;28;20054;-74
2023/02/23 13:43:12;;;;;;;11.38;5.35;;;;;;;;;;5012157;28;20053;-73
2023/02/23 13:46:03;;;;;;;11.55;4.72;;;;;;;;;;5013312;28;20058;-73
2023/02/23 13:49:07;;;;;;;7.68;4.35;;;;;;;;;;5012027;28;20061;-73
2023/02/23 13:51:54;;;;;;;7.25;4.10;;;;;;;;;;5013352;28;20061;-73
2023/02/23 13:54:30;;;;;;;11.70;4.45;;;;;;;;;;5011598;28;20529;-72
2023/02/23 13:57:10;;;;;;;9.73;4.68;;;;;;;;;;4988645;28;20071;-75
2023/02/23 13:59:40;;;;;;;8.02;3.85;;;;;;;;;;4993924;28;20234;-74
2023/02/23 14:02:29;;;;;;;7.20;3.88;;;;;;;;;;5010049;28;20545;-72
2023/02/23 14:05:00;;;;;;;9.98;5.03;;;;;;;;;;5018327;28;20060;-72
2023/02/23 14:07:29;;;;;;;9.48;4.07;;;;;;;;;;5002313;28;20103;-73
2023/02/23 14:10:08;;;;;;;8.75;4.47;;;;;;;;;;4986567;28;20057;-71
2023/02/23 14:12:38;;;;;;;6.28;3.95;;;;;;;;;;4999012;28;20422;-72
2023/02/23 14:15:37;;;;;;;9.38;4.40;;;;;;;;;;5004016;28;20052;-73
2023/02/23 14:18:27;;;;;;;5.43;3.35;;;;;;;;;;5004603;28;20049;-73
2023/02/23 14:20:56;;;;;;;9.13;3.10;;;;;;;;;;4998631;28;20061;-73
2023/02/23 14:23:23;;;;;;;6.03;3.13;;;;;;;;;;5012240;28;20054;-73
2023/02/23 14:26:28;;;;;;;5.50;2.80;;;;;;;;;;5010677;28;20050;-72
2023/02/23 14:29:13;;;;;;;4.75;2.40;;;;;;;;;;4988488;28;20050;-73
2023/02/23 14:31:56;;;;;;;7.15;2.55;;;;;;;;;;5014786;28;20426;-72
2023/02/23 14:34:42;;;;;;;5.85;2.80;;;;;;;;;;4995826;28;20046;-72
2023/02/23 14:37:55;;;;;;;8.63;2.90;;;;;;;;;;5018616;28;20042;-71
2023/02/23 14:40:28;;;;;;;5.35;2.95;;;;;;;;;;4973811;28;20072;-73
2023/02/23 14:42:57;;;;;;;5.03;2.60;;;;;;;;;;4964261;28;20057;-73
2023/02/23 14:45:29;;;;;;;7.32;3.08;;;;;;;;;;4969305;28;20056;-72
2023/02/23 14:48:06;;;;;;;8.93;3.45;;;;;;;;;;4994186;28;20621;-72
2023/02/23 14:50:34;;;;;;;5.97;3.10;;;;;;;;;;5012478;28;20050;-71
2023/02/23 14:53:03;;;;;;;8.70;3.40;;;;;;;;;;5013518;28;20060;-73
2023/02/23 14:55:34;;;;;;;5.93;3.13;;;;;;;;;;5012776;28;20109;-73
2023/02/23 14:58:21;;;;;;;8.35;3.38;;;;;;;;;;5012039;28;20416;-73
2023/02/23 15:00:50;;;;;;;6.50;3.63;;;;;;;;;;5000911;28;20090;-72
2023/02/23 15:03:17;;;;;;;6.28;4.07;;;;;;;;;;5013666;28;20370;-73
2023/02/23 15:05:47;;;;;;;15.10;4.05;;;;;;;;;;5011320;28;20050;-72
2023/02/23 15:08:19;;;;;;;7.28;4.55;;;;;;;;;;5013379;28;20529;-72
2023/02/23 15:10:47;;;;;;;6.90;3.53;;;;;;;;;;5006135;28;20081;-72
2023/02/23 15:13:27;;;;;;;11.52;4.38;;;;;;;;;;5016978;28;20078;-72
2023/02/23 15:16:01;;;;;;;6.55;3.70;;;;;;;;;;5011620;28;20305;-73
2023/02/23 15:21:52;;;;;;;10.00;4.25;;;;;;;;;;4996835;28;20233;-72
2023/02/23 15:24:26;;;;;;;7.47;3.92;;;;;;;;;;4980593;28;20081;-72
2023/02/23 15:26:54;;;;;;;11.57;3.75;;;;;;;;;;5013008;28;20433;-71
2023/02/23 15:29:23;;;;;;;6.50;4.13;;;;;;;;;;4995237;28;20062;-71
2023/02/23 15:31:52;;;;;;;10.45;3.95;;;;;;;;;;5015477;28;20058;-72
2023/02/23 15:34:25;;;;;;;8.85;4.07;;;;;;;;;;4995160;28;20062;-71
2023/02/23 15:37:00;;;;;;;10.17;4.17;;;;;;;;;;4999778;28;20498;-71
2023/02/23 15:39:37;;;;;;;7.57;3.65;;;;;;;;;;5017705;28;20053;-72
2023/02/23 15:42:05;;;;;;;7.85;3.90;;;;;;;;;;5012184;28;20057;-72
2023/02/23 15:44:33;;;;;;;5.90;4.07;;;;;;;;;;4997923;28;20249;-72
2023/02/23 15:47:20;;;;;;;13.40;4.78;;;;;;;;;;5013718;28;20608;-72
2023/02/23 15:49:49;;;;;;;13.20;4.93;;;;;;;;;;5002930;28;20057;-72
2023/02/23 15:52:22;;;;;;;8.45;4.13;;;;;;;;;;5016859;28;20061;-71
2023/02/23 15:54:58;;;;;;;7.00;4.18;;;;;;;;;;4996317;28;20124;-73
2023/02/23 15:57:29;;;;;;;8.10;3.63;;;;;;;;;;4980192;28;20050;-72
2023/02/23 15:59:57;;;;;;;10.77;4.10;;;;;;;;;;5000160;28;20081;-74
2023/02/23 16:02:24;;;;;;;9.77;4.03;;;;;;;;;;5018397;28;20108;-73
2023/02/23 16:04:52;;;;;;;9.48;4.15;;;;;;;;;;5013109;28;20089;-73
2023/02/23 16:07:24;;;;;;;8.07;4.72;;;;;;;;;;5010941;28;20514;-73
2023/02/23 16:10:01;;;;;;;8.63;5.28;;;;;;;;;;5008897;28;20418;-72
2023/02/23 16:12:32;;;;;;;8.32;5.22;;;;;;;;;;4997422;28;20089;-73
2023/02/23 16:15:01;;;;;;;9.23;4.30;;;;;;;;;;5015311;28;20064;-74
2023/02/23 16:17:42;;;;;;;9.95;5.13;;;;;;;;;;4995585;28;20545;-72